sensor_id;sensor_type;location;lat;lon;timestamp;P1;durP1;ratioP1;P2;durP2;ratioP2
80322;SDS011;69636;52.372;13.610;2023-06-14T00:06:29;4.22;;;2.72;;
80322;SDS011;69636;52.372;13.610;2023-06-14T00:08:56;5.53;;;3.17;;
80322;SDS011;69636;52.372;13.610;2023-06-14T00:11:24;3.78;;;2.33;;
80322;SDS011;69636;52.372;13.610;2023-06-14T00:13:51;3.97;;;2.53;;
80322;SDS011;69636;52.372;13.610;2023-06-14T00:16:18;4.07;;;2.25;;
80322;SDS011;69636;52.372;13.610;2023-06-14T00:18:46;3.85;;;2.63;;
80322;SDS011;69636;52.372;13.610;2023-06-14T00:21:14;4.70;;;2.30;;
80322;SDS011;69636;52.372;13.610;2023-06-14T00:23:42;8.90;;;2.75;;
80322;SDS011;69636;52.372;13.610;2023-06-14T00:26:09;3.65;;;2.05;;
80322;SDS011;69636;52.372;13.610;2023-06-14T00:28:36;4.22;;;2.50;;
80322;SDS011;69636;52.372;13.610;2023-06-14T00:31:04;3.88;;;2.33;;
80322;SDS011;69636;52.372;13.610;2023-06-14T00:33:31;3.88;;;2.63;;
80322;SDS011;69636;52.372;13.610;2023-06-14T00:35:58;5.05;;;2.97;;
80322;SDS011;69636;52.372;13.610;2023-06-14T00:38:27;4.07;;;2.60;;
80322;SDS011;69636;52.372;13.610;2023-06-14T00:40:54;5.47;;;2.75;;
80322;SDS011;69636;52.372;13.610;2023-06-14T00:43:21;4.63;;;2.65;;
80322;SDS011;69636;52.372;13.610;2023-06-14T00:45:49;5.05;;;3.13;;
80322;SDS011;69636;52.372;13.610;2023-06-14T00:48:16;4.47;;;2.47;;
80322;SDS011;69636;52.372;13.610;2023-06-14T00:50:44;5.63;;;2.95;;
80322;SDS011;69636;52.372;13.610;2023-06-14T00:53:12;4.75;;;2.65;;
80322;SDS011;69636;52.372;13.610;2023-06-14T00:55:41;4.10;;;2.92;;
80322;SDS011;69636;52.372;13.610;2023-06-14T00:58:08;4.38;;;2.72;;
80322;SDS011;69636;52.372;13.610;2023-06-14T01:00:36;4.43;;;2.92;;
80322;SDS011;69636;52.372;13.610;2023-06-14T01:03:04;6.45;;;3.83;;
80322;SDS011;69636;52.372;13.610;2023-06-14T01:05:31;4.38;;;3.15;;
80322;SDS011;69636;52.372;13.610;2023-06-14T01:08:03;5.00;;;3.42;;
80322;SDS011;69636;52.372;13.610;2023-06-14T01:10:46;5.63;;;3.42;;
80322;SDS011;69636;52.372;13.610;2023-06-14T01:13:19;4.47;;;3.05;;
80322;SDS011;69636;52.372;13.610;2023-06-14T01:15:48;4.53;;;3.08;;
80322;SDS011;69636;52.372;13.610;2023-06-14T01:18:17;5.93;;;3.60;;
80322;SDS011;69636;52.372;13.610;2023-06-14T01:20:45;5.28;;;3.30;;
80322;SDS011;69636;52.372;13.610;2023-06-14T01:23:15;11.68;;;4.07;;
80322;SDS011;69636;52.372;13.610;2023-06-14T01:25:43;5.85;;;3.67;;
80322;SDS011;69636;52.372;13.610;2023-06-14T01:28:10;6.25;;;3.17;;
80322;SDS011;69636;52.372;13.610;2023-06-14T01:30:39;5.40;;;3.60;;
80322;SDS011;69636;52.372;13.610;2023-06-14T01:33:07;4.70;;;3.45;;
80322;SDS011;69636;52.372;13.610;2023-06-14T01:35:35;5.68;;;3.30;;
80322;SDS011;69636;52.372;13.610;2023-06-14T01:38:03;5.50;;;3.60;;
80322;SDS011;69636;52.372;13.610;2023-06-14T01:40:33;5.15;;;3.47;;
80322;SDS011;69636;52.372;13.610;2023-06-14T01:43:01;6.10;;;3.92;;
80322;SDS011;69636;52.372;13.610;2023-06-14T01:45:30;5.65;;;3.28;;
80322;SDS011;69636;52.372;13.610;2023-06-14T01:47:59;5.78;;;4.22;;
80322;SDS011;69636;52.372;13.610;2023-06-14T01:50:28;5.55;;;3.80;;
80322;SDS011;69636;52.372;13.610;2023-06-14T01:52:55;6.13;;;3.95;;
80322;SDS011;69636;52.372;13.610;2023-06-14T01:55:22;7.50;;;3.45;;
80322;SDS011;69636;52.372;13.610;2023-06-14T01:57:51;6.00;;;3.63;;
80322;SDS011;69636;52.372;13.610;2023-06-14T02:00:19;6.80;;;4.07;;
80322;SDS011;69636;52.372;13.610;2023-06-14T02:02:46;5.55;;;4.03;;
80322;SDS011;69636;52.372;13.610;2023-06-14T02:05:14;6.22;;;4.32;;
80322;SDS011;69636;52.372;13.610;2023-06-14T02:07:41;7.35;;;4.72;;
80322;SDS011;69636;52.372;13.610;2023-06-14T02:10:08;5.75;;;4.38;;
80322;SDS011;69636;52.372;13.610;2023-06-14T02:12:36;5.15;;;4.05;;
80322;SDS011;69636;52.372;13.610;2023-06-14T02:15:05;7.13;;;4.35;;
80322;SDS011;69636;52.372;13.610;2023-06-14T02:17:33;4.93;;;3.60;;
80322;SDS011;69636;52.372;13.610;2023-06-14T02:20:00;6.47;;;4.45;;
80322;SDS011;69636;52.372;13.610;2023-06-14T02:22:27;7.05;;;4.32;;
80322;SDS011;69636;52.372;13.610;2023-06-14T02:24:55;7.15;;;4.28;;
80322;SDS011;69636;52.372;13.610;2023-06-14T02:27:28;7.13;;;4.75;;
80322;SDS011;69636;52.372;13.610;2023-06-14T02:29:55;6.32;;;4.80;;
80322;SDS011;69636;52.372;13.610;2023-06-14T02:32:24;7.60;;;4.68;;
80322;SDS011;69636;52.372;13.610;2023-06-14T02:34:51;7.00;;;4.57;;
80322;SDS011;69636;52.372;13.610;2023-06-14T02:37:19;6.82;;;4.70;;
80322;SDS011;69636;52.372;13.610;2023-06-14T02:39:47;6.97;;;6.25;;
80322;SDS011;69636;52.372;13.610;2023-06-14T02:44:43;6.88;;;4.90;;
80322;SDS011;69636;52.372;13.610;2023-06-14T02:47:11;6.43;;;4.90;;
80322;SDS011;69636;52.372;13.610;2023-06-14T02:49:39;6.38;;;5.22;;
80322;SDS011;69636;52.372;13.610;2023-06-14T02:52:07;7.20;;;5.03;;
80322;SDS011;69636;52.372;13.610;2023-06-14T02:54:34;7.65;;;5.03;;
80322;SDS011;69636;52.372;13.610;2023-06-14T02:57:01;7.72;;;5.28;;
80322;SDS011;69636;52.372;13.610;2023-06-14T02:59:29;6.80;;;4.57;;
80322;SDS011;69636;52.372;13.610;2023-06-14T03:01:56;7.10;;;4.90;;
80322;SDS011;69636;52.372;13.610;2023-06-14T03:04:23;7.38;;;4.78;;
80322;SDS011;69636;52.372;13.610;2023-06-14T03:06:52;6.28;;;4.40;;
80322;SDS011;69636;52.372;13.610;2023-06-14T03:09:19;7.05;;;4.55;;
80322;SDS011;69636;52.372;13.610;2023-06-14T03:11:47;5.97;;;4.63;;
80322;SDS011;69636;52.372;13.610;2023-06-14T03:14:14;6.30;;;4.80;;
80322;SDS011;69636;52.372;13.610;2023-06-14T03:16:42;7.63;;;5.40;;
80322;SDS011;69636;52.372;13.610;2023-06-14T03:19:09;9.18;;;4.25;;
80322;SDS011;69636;52.372;13.610;2023-06-14T03:21:36;8.65;;;4.78;;
80322;SDS011;69636;52.372;13.610;2023-06-14T03:24:05;6.72;;;5.32;;
80322;SDS011;69636;52.372;13.610;2023-06-14T03:26:33;6.90;;;4.72;;
80322;SDS011;69636;52.372;13.610;2023-06-14T03:29:00;6.85;;;4.85;;
80322;SDS011;69636;52.372;13.610;2023-06-14T03:31:28;7.95;;;5.13;;
80322;SDS011;69636;52.372;13.610;2023-06-14T03:33:56;8.60;;;5.05;;
80322;SDS011;69636;52.372;13.610;2023-06-14T03:36:23;8.30;;;7.43;;
80322;SDS011;69636;52.372;13.610;2023-06-14T03:38:50;7.43;;;4.97;;
80322;SDS011;69636;52.372;13.610;2023-06-14T03:41:19;6.32;;;5.00;;
80322;SDS011;69636;52.372;13.610;2023-06-14T03:43:46;7.40;;;5.80;;
80322;SDS011;69636;52.372;13.610;2023-06-14T03:46:14;8.48;;;6.50;;
80322;SDS011;69636;52.372;13.610;2023-06-14T03:48:41;7.43;;;5.63;;
80322;SDS011;69636;52.372;13.610;2023-06-14T03:51:08;7.38;;;5.18;;
80322;SDS011;69636;52.372;13.610;2023-06-14T03:53:35;7.53;;;5.80;;
80322;SDS011;69636;52.372;13.610;2023-06-14T03:56:10;7.80;;;5.95;;
80322;SDS011;69636;52.372;13.610;2023-06-14T03:58:39;8.43;;;5.72;;
80322;SDS011;69636;52.372;13.610;2023-06-14T04:01:06;8.00;;;5.40;;
80322;SDS011;69636;52.372;13.610;2023-06-14T04:03:34;7.68;;;5.78;;
80322;SDS011;69636;52.372;13.610;2023-06-14T04:06:01;6.70;;;5.57;;
80322;SDS011;69636;52.372;13.610;2023-06-14T04:08:28;7.22;;;6.32;;
80322;SDS011;69636;52.372;13.610;2023-06-14T04:10:56;10.48;;;6.03;;
80322;SDS011;69636;52.372;13.610;2023-06-14T04:13:23;7.60;;;5.38;;
80322;SDS011;69636;52.372;13.610;2023-06-14T04:15:52;7.53;;;5.75;;
80322;SDS011;69636;52.372;13.610;2023-06-14T04:18:20;7.75;;;5.47;;
80322;SDS011;69636;52.372;13.610;2023-06-14T04:20:50;8.18;;;5.72;;
80322;SDS011;69636;52.372;13.610;2023-06-14T04:23:17;7.32;;;5.95;;
80322;SDS011;69636;52.372;13.610;2023-06-14T04:25:45;8.60;;;5.85;;
80322;SDS011;69636;52.372;13.610;2023-06-14T04:28:12;9.18;;;7.35;;
80322;SDS011;69636;52.372;13.610;2023-06-14T04:30:40;8.23;;;5.25;;
80322;SDS011;69636;52.372;13.610;2023-06-14T04:33:09;10.15;;;5.85;;
80322;SDS011;69636;52.372;13.610;2023-06-14T04:35:36;8.48;;;6.13;;
80322;SDS011;69636;52.372;13.610;2023-06-14T04:38:03;6.97;;;5.80;;
80322;SDS011;69636;52.372;13.610;2023-06-14T04:40:32;7.75;;;6.03;;
80322;SDS011;69636;52.372;13.610;2023-06-14T04:42:59;7.65;;;5.85;;
80322;SDS011;69636;52.372;13.610;2023-06-14T04:45:26;7.78;;;6.75;;
80322;SDS011;69636;52.372;13.610;2023-06-14T04:47:53;9.50;;;6.10;;
80322;SDS011;69636;52.372;13.610;2023-06-14T04:50:22;8.00;;;5.88;;
80322;SDS011;69636;52.372;13.610;2023-06-14T04:52:49;10.35;;;6.43;;
80322;SDS011;69636;52.372;13.610;2023-06-14T04:55:17;9.73;;;7.30;;
80322;SDS011;69636;52.372;13.610;2023-06-14T04:57:45;9.80;;;7.75;;
80322;SDS011;69636;52.372;13.610;2023-06-14T05:00:12;10.07;;;7.88;;
80322;SDS011;69636;52.372;13.610;2023-06-14T05:02:40;9.60;;;6.63;;
80322;SDS011;69636;52.372;13.610;2023-06-14T05:05:08;7.32;;;5.95;;
80322;SDS011;69636;52.372;13.610;2023-06-14T05:07:37;8.77;;;5.38;;
80322;SDS011;69636;52.372;13.610;2023-06-14T05:10:08;6.82;;;5.28;;
80322;SDS011;69636;52.372;13.610;2023-06-14T05:12:36;8.35;;;7.05;;
80322;SDS011;69636;52.372;13.610;2023-06-14T05:15:03;7.10;;;5.85;;
80322;SDS011;69636;52.372;13.610;2023-06-14T05:17:31;7.72;;;6.03;;
80322;SDS011;69636;52.372;13.610;2023-06-14T05:19:58;9.40;;;6.90;;
80322;SDS011;69636;52.372;13.610;2023-06-14T05:22:25;9.18;;;7.60;;
80322;SDS011;69636;52.372;13.610;2023-06-14T05:24:54;9.35;;;7.10;;
80322;SDS011;69636;52.372;13.610;2023-06-14T05:27:21;8.35;;;6.22;;
80322;SDS011;69636;52.372;13.610;2023-06-14T05:29:49;8.45;;;5.78;;
80322;SDS011;69636;52.372;13.610;2023-06-14T05:32:16;9.95;;;6.50;;
80322;SDS011;69636;52.372;13.610;2023-06-14T05:34:43;7.43;;;5.57;;
80322;SDS011;69636;52.372;13.610;2023-06-14T05:37:10;8.88;;;5.47;;
80322;SDS011;69636;52.372;13.610;2023-06-14T05:39:38;8.85;;;7.55;;
80322;SDS011;69636;52.372;13.610;2023-06-14T05:42:07;11.38;;;6.35;;
80322;SDS011;69636;52.372;13.610;2023-06-14T05:44:34;9.30;;;6.47;;
80322;SDS011;69636;52.372;13.610;2023-06-14T05:47:02;13.30;;;7.65;;
80322;SDS011;69636;52.372;13.610;2023-06-14T05:49:29;9.65;;;6.28;;
80322;SDS011;69636;52.372;13.610;2023-06-14T05:51:56;8.93;;;7.35;;
80322;SDS011;69636;52.372;13.610;2023-06-14T05:54:24;8.85;;;6.53;;
80322;SDS011;69636;52.372;13.610;2023-06-14T05:56:51;10.82;;;7.82;;
80322;SDS011;69636;52.372;13.610;2023-06-14T05:59:20;13.02;;;7.53;;
80322;SDS011;69636;52.372;13.610;2023-06-14T06:01:47;11.93;;;7.10;;
80322;SDS011;69636;52.372;13.610;2023-06-14T06:04:15;8.65;;;6.47;;
80322;SDS011;69636;52.372;13.610;2023-06-14T06:06:42;9.18;;;6.20;;
80322;SDS011;69636;52.372;13.610;2023-06-14T06:09:09;8.13;;;6.25;;
80322;SDS011;69636;52.372;13.610;2023-06-14T06:11:37;10.48;;;7.00;;
80322;SDS011;69636;52.372;13.610;2023-06-14T06:14:18;8.48;;;5.13;;
80322;SDS011;69636;52.372;13.610;2023-06-14T06:16:47;8.75;;;6.20;;
80322;SDS011;69636;52.372;13.610;2023-06-14T06:19:14;8.10;;;5.63;;
80322;SDS011;69636;52.372;13.610;2023-06-14T06:21:42;8.80;;;6.25;;
80322;SDS011;69636;52.372;13.610;2023-06-14T06:24:09;9.32;;;5.95;;
80322;SDS011;69636;52.372;13.610;2023-06-14T06:26:36;7.40;;;5.38;;
80322;SDS011;69636;52.372;13.610;2023-06-14T06:29:04;7.30;;;5.50;;
80322;SDS011;69636;52.372;13.610;2023-06-14T06:31:31;7.18;;;5.93;;
80322;SDS011;69636;52.372;13.610;2023-06-14T06:34:00;7.50;;;5.68;;
80322;SDS011;69636;52.372;13.610;2023-06-14T06:36:27;7.93;;;6.30;;
80322;SDS011;69636;52.372;13.610;2023-06-14T06:38:54;8.43;;;6.18;;
80322;SDS011;69636;52.372;13.610;2023-06-14T06:41:22;8.80;;;6.22;;
80322;SDS011;69636;52.372;13.610;2023-06-14T06:43:49;8.45;;;6.07;;
80322;SDS011;69636;52.372;13.610;2023-06-14T06:46:16;8.50;;;6.30;;
80322;SDS011;69636;52.372;13.610;2023-06-14T06:48:43;7.18;;;5.80;;
80322;SDS011;69636;52.372;13.610;2023-06-14T06:51:12;6.72;;;5.40;;
80322;SDS011;69636;52.372;13.610;2023-06-14T06:53:41;6.88;;;5.25;;
80322;SDS011;69636;52.372;13.610;2023-06-14T06:56:15;7.07;;;5.30;;
80322;SDS011;69636;52.372;13.610;2023-06-14T06:58:42;6.75;;;5.68;;
80322;SDS011;69636;52.372;13.610;2023-06-14T07:01:10;8.02;;;5.35;;
80322;SDS011;69636;52.372;13.610;2023-06-14T07:03:37;7.85;;;6.07;;
80322;SDS011;69636;52.372;13.610;2023-06-14T07:06:04;6.95;;;5.53;;
80322;SDS011;69636;52.372;13.610;2023-06-14T07:08:33;9.73;;;5.18;;
80322;SDS011;69636;52.372;13.610;2023-06-14T07:11:01;7.85;;;6.07;;
80322;SDS011;69636;52.372;13.610;2023-06-14T07:13:28;7.93;;;5.57;;
80322;SDS011;69636;52.372;13.610;2023-06-14T07:15:57;7.22;;;5.38;;
80322;SDS011;69636;52.372;13.610;2023-06-14T07:18:26;9.55;;;5.95;;
80322;SDS011;69636;52.372;13.610;2023-06-14T07:20:53;8.20;;;5.80;;
80322;SDS011;69636;52.372;13.610;2023-06-14T07:23:21;7.55;;;5.55;;
80322;SDS011;69636;52.372;13.610;2023-06-14T07:25:49;7.85;;;6.15;;
80322;SDS011;69636;52.372;13.610;2023-06-14T07:28:17;7.30;;;5.00;;
80322;SDS011;69636;52.372;13.610;2023-06-14T07:33:12;7.47;;;6.43;;
80322;SDS011;69636;52.372;13.610;2023-06-14T07:35:39;6.75;;;5.00;;
80322;SDS011;69636;52.372;13.610;2023-06-14T07:38:08;6.68;;;4.85;;
80322;SDS011;69636;52.372;13.610;2023-06-14T07:40:36;6.55;;;5.38;;
80322;SDS011;69636;52.372;13.610;2023-06-14T07:43:04;7.47;;;5.20;;
80322;SDS011;69636;52.372;13.610;2023-06-14T07:45:32;6.72;;;5.50;;
80322;SDS011;69636;52.372;13.610;2023-06-14T07:47:59;7.20;;;5.07;;
80322;SDS011;69636;52.372;13.610;2023-06-14T07:50:26;7.43;;;4.80;;
80322;SDS011;69636;52.372;13.610;2023-06-14T07:52:54;7.60;;;5.32;;
80322;SDS011;69636;52.372;13.610;2023-06-14T07:55:21;8.57;;;4.93;;
80322;SDS011;69636;52.372;13.610;2023-06-14T07:57:48;8.55;;;5.90;;
80322;SDS011;69636;52.372;13.610;2023-06-14T08:00:18;10.77;;;5.25;;
80322;SDS011;69636;52.372;13.610;2023-06-14T08:02:46;6.35;;;4.45;;
80322;SDS011;69636;52.372;13.610;2023-06-14T08:05:13;7.55;;;4.88;;
80322;SDS011;69636;52.372;13.610;2023-06-14T08:10:08;7.60;;;4.85;;
80322;SDS011;69636;52.372;13.610;2023-06-14T08:12:36;7.13;;;4.50;;
80322;SDS011;69636;52.372;13.610;2023-06-14T08:15:04;5.70;;;4.75;;
80322;SDS011;69636;52.372;13.610;2023-06-14T08:17:43;5.85;;;4.15;;
80322;SDS011;69636;52.372;13.610;2023-06-14T08:20:11;9.02;;;4.60;;
80322;SDS011;69636;52.372;13.610;2023-06-14T08:22:39;10.30;;;5.15;;
80322;SDS011;69636;52.372;13.610;2023-06-14T08:25:07;7.20;;;5.20;;
80322;SDS011;69636;52.372;13.610;2023-06-14T08:27:35;7.55;;;5.00;;
80322;SDS011;69636;52.372;13.610;2023-06-14T08:30:02;7.22;;;4.47;;
80322;SDS011;69636;52.372;13.610;2023-06-14T08:32:30;6.75;;;4.65;;
80322;SDS011;69636;52.372;13.610;2023-06-14T08:34:59;5.15;;;3.63;;
80322;SDS011;69636;52.372;13.610;2023-06-14T08:37:31;5.80;;;3.80;;
80322;SDS011;69636;52.372;13.610;2023-06-14T08:39:59;5.65;;;4.05;;
80322;SDS011;69636;52.372;13.610;2023-06-14T08:42:26;4.60;;;3.63;;
80322;SDS011;69636;52.372;13.610;2023-06-14T08:44:58;6.07;;;3.88;;
80322;SDS011;69636;52.372;13.610;2023-06-14T08:47:25;5.43;;;3.78;;
80322;SDS011;69636;52.372;13.610;2023-06-14T08:49:54;5.75;;;3.83;;
80322;SDS011;69636;52.372;13.610;2023-06-14T08:52:24;5.60;;;3.53;;
80322;SDS011;69636;52.372;13.610;2023-06-14T08:54:54;5.93;;;3.25;;
80322;SDS011;69636;52.372;13.610;2023-06-14T08:59:49;5.18;;;3.30;;
80322;SDS011;69636;52.372;13.610;2023-06-14T09:02:18;5.63;;;3.53;;
80322;SDS011;69636;52.372;13.610;2023-06-14T09:04:45;5.38;;;3.35;;
80322;SDS011;69636;52.372;13.610;2023-06-14T09:07:13;6.22;;;3.40;;
80322;SDS011;69636;52.372;13.610;2023-06-14T09:09:41;5.55;;;3.25;;
80322;SDS011;69636;52.372;13.610;2023-06-14T09:12:29;5.15;;;3.35;;
80322;SDS011;69636;52.372;13.610;2023-06-14T09:14:57;7.68;;;3.90;;
80322;SDS011;69636;52.372;13.610;2023-06-14T09:17:24;7.38;;;3.63;;
80322;SDS011;69636;52.372;13.610;2023-06-14T09:19:51;6.88;;;3.55;;
80322;SDS011;69636;52.372;13.610;2023-06-14T09:22:23;6.25;;;4.07;;
80322;SDS011;69636;52.372;13.610;2023-06-14T09:24:52;7.63;;;3.60;;
80322;SDS011;69636;52.372;13.610;2023-06-14T09:27:20;5.78;;;3.20;;
80322;SDS011;69636;52.372;13.610;2023-06-14T09:29:48;6.25;;;3.20;;
80322;SDS011;69636;52.372;13.610;2023-06-14T09:32:15;4.68;;;2.97;;
80322;SDS011;69636;52.372;13.610;2023-06-14T09:34:42;4.68;;;3.25;;
80322;SDS011;69636;52.372;13.610;2023-06-14T09:39:46;6.03;;;3.50;;
80322;SDS011;69636;52.372;13.610;2023-06-14T09:42:18;5.13;;;3.40;;
80322;SDS011;69636;52.372;13.610;2023-06-14T09:44:46;7.20;;;3.33;;
80322;SDS011;69636;52.372;13.610;2023-06-14T09:47:15;5.97;;;3.63;;
80322;SDS011;69636;52.372;13.610;2023-06-14T09:49:43;5.25;;;3.28;;
80322;SDS011;69636;52.372;13.610;2023-06-14T09:52:12;5.55;;;3.25;;
80322;SDS011;69636;52.372;13.610;2023-06-14T09:54:42;6.10;;;3.38;;
80322;SDS011;69636;52.372;13.610;2023-06-14T09:57:11;4.90;;;3.10;;
80322;SDS011;69636;52.372;13.610;2023-06-14T09:59:41;4.13;;;2.83;;
80322;SDS011;69636;52.372;13.610;2023-06-14T10:02:11;4.78;;;3.00;;
80322;SDS011;69636;52.372;13.610;2023-06-14T10:04:44;6.25;;;3.45;;
80322;SDS011;69636;52.372;13.610;2023-06-14T10:07:17;5.50;;;3.25;;
80322;SDS011;69636;52.372;13.610;2023-06-14T10:09:46;5.30;;;3.42;;
80322;SDS011;69636;52.372;13.610;2023-06-14T10:12:14;4.38;;;2.40;;
80322;SDS011;69636;52.372;13.610;2023-06-14T10:14:45;5.40;;;2.88;;
80322;SDS011;69636;52.372;13.610;2023-06-14T10:17:17;5.03;;;3.13;;
80322;SDS011;69636;52.372;13.610;2023-06-14T10:19:50;8.63;;;3.38;;
80322;SDS011;69636;52.372;13.610;2023-06-14T10:22:24;5.88;;;2.92;;
80322;SDS011;69636;52.372;13.610;2023-06-14T10:24:55;6.45;;;3.53;;
80322;SDS011;69636;52.372;13.610;2023-06-14T10:27:23;5.40;;;3.38;;
80322;SDS011;69636;52.372;13.610;2023-06-14T10:30:06;8.48;;;2.65;;
80322;SDS011;69636;52.372;13.610;2023-06-14T10:32:34;5.35;;;3.03;;
80322;SDS011;69636;52.372;13.610;2023-06-14T10:35:22;4.65;;;3.28;;
80322;SDS011;69636;52.372;13.610;2023-06-14T10:37:50;4.97;;;2.67;;
80322;SDS011;69636;52.372;13.610;2023-06-14T10:40:29;4.88;;;3.20;;
80322;SDS011;69636;52.372;13.610;2023-06-14T10:42:57;5.45;;;3.25;;
80322;SDS011;69636;52.372;13.610;2023-06-14T10:45:26;6.88;;;3.20;;
80322;SDS011;69636;52.372;13.610;2023-06-14T10:47:57;5.05;;;2.63;;
80322;SDS011;69636;52.372;13.610;2023-06-14T10:50:27;5.53;;;3.17;;
80322;SDS011;69636;52.372;13.610;2023-06-14T10:52:55;6.07;;;3.33;;
80322;SDS011;69636;52.372;13.610;2023-06-14T10:55:22;6.05;;;3.30;;
80322;SDS011;69636;52.372;13.610;2023-06-14T10:57:51;7.40;;;3.15;;
80322;SDS011;69636;52.372;13.610;2023-06-14T11:00:21;7.82;;;3.40;;
80322;SDS011;69636;52.372;13.610;2023-06-14T11:03:16;6.38;;;3.72;;
80322;SDS011;69636;52.372;13.610;2023-06-14T11:06:09;4.95;;;3.40;;
80322;SDS011;69636;52.372;13.610;2023-06-14T11:11:48;5.47;;;2.95;;
80322;SDS011;69636;52.372;13.610;2023-06-14T11:14:18;5.65;;;3.42;;
80322;SDS011;69636;52.372;13.610;2023-06-14T11:16:47;5.07;;;3.00;;
80322;SDS011;69636;52.372;13.610;2023-06-14T11:19:16;4.82;;;2.75;;
80322;SDS011;69636;52.372;13.610;2023-06-14T11:21:46;4.85;;;3.08;;
80322;SDS011;69636;52.372;13.610;2023-06-14T11:24:14;5.15;;;3.08;;
80322;SDS011;69636;52.372;13.610;2023-06-14T11:26:43;6.38;;;3.55;;
80322;SDS011;69636;52.372;13.610;2023-06-14T11:29:11;5.32;;;2.95;;
80322;SDS011;69636;52.372;13.610;2023-06-14T11:31:42;5.82;;;3.10;;
80322;SDS011;69636;52.372;13.610;2023-06-14T11:34:10;7.07;;;3.42;;
80322;SDS011;69636;52.372;13.610;2023-06-14T11:36:40;7.15;;;3.30;;
80322;SDS011;69636;52.372;13.610;2023-06-14T11:39:09;6.93;;;3.28;;
80322;SDS011;69636;52.372;13.610;2023-06-14T11:41:38;5.82;;;3.60;;
80322;SDS011;69636;52.372;13.610;2023-06-14T11:44:06;5.65;;;3.22;;
80322;SDS011;69636;52.372;13.610;2023-06-14T11:46:34;4.40;;;3.00;;
80322;SDS011;69636;52.372;13.610;2023-06-14T11:49:02;5.45;;;2.90;;
80322;SDS011;69636;52.372;13.610;2023-06-14T11:51:30;4.40;;;3.15;;
80322;SDS011;69636;52.372;13.610;2023-06-14T11:54:00;7.13;;;3.15;;
80322;SDS011;69636;52.372;13.610;2023-06-14T11:56:28;5.07;;;3.00;;
80322;SDS011;69636;52.372;13.610;2023-06-14T11:58:56;5.50;;;3.25;;
80322;SDS011;69636;52.372;13.610;2023-06-14T12:03:50;5.28;;;3.17;;
80322;SDS011;69636;52.372;13.610;2023-06-14T12:06:25;6.78;;;2.63;;
80322;SDS011;69636;52.372;13.610;2023-06-14T12:08:55;4.80;;;2.58;;
80322;SDS011;69636;52.372;13.610;2023-06-14T12:11:24;7.85;;;3.10;;
80322;SDS011;69636;52.372;13.610;2023-06-14T12:13:58;5.25;;;3.05;;
80322;SDS011;69636;52.372;13.610;2023-06-14T12:16:29;4.47;;;2.58;;
80322;SDS011;69636;52.372;13.610;2023-06-14T12:18:59;7.00;;;3.22;;
80322;SDS011;69636;52.372;13.610;2023-06-14T12:21:27;5.07;;;3.20;;
80322;SDS011;69636;52.372;13.610;2023-06-14T12:26:23;6.90;;;3.20;;
80322;SDS011;69636;52.372;13.610;2023-06-14T12:28:51;6.35;;;3.05;;
80322;SDS011;69636;52.372;13.610;2023-06-14T12:31:19;8.45;;;2.97;;
80322;SDS011;69636;52.372;13.610;2023-06-14T12:36:14;5.50;;;2.60;;
80322;SDS011;69636;52.372;13.610;2023-06-14T12:41:08;6.75;;;3.38;;
80322;SDS011;69636;52.372;13.610;2023-06-14T12:46:04;4.95;;;2.90;;
80322;SDS011;69636;52.372;13.610;2023-06-14T12:50:58;6.32;;;3.10;;
80322;SDS011;69636;52.372;13.610;2023-06-14T12:55:52;5.40;;;2.63;;
80322;SDS011;69636;52.372;13.610;2023-06-14T13:00:48;4.45;;;2.67;;
80322;SDS011;69636;52.372;13.610;2023-06-14T13:03:15;6.00;;;3.00;;
80322;SDS011;69636;52.372;13.610;2023-06-14T13:05:43;4.90;;;2.83;;
80322;SDS011;69636;52.372;13.610;2023-06-14T13:08:10;9.00;;;3.20;;
80322;SDS011;69636;52.372;13.610;2023-06-14T13:13:04;5.85;;;2.63;;
80322;SDS011;69636;52.372;13.610;2023-06-14T13:18:00;5.95;;;2.97;;
80322;SDS011;69636;52.372;13.610;2023-06-14T13:20:28;5.05;;;2.78;;
80322;SDS011;69636;52.372;13.610;2023-06-14T13:22:56;7.40;;;3.05;;
80322;SDS011;69636;52.372;13.610;2023-06-14T13:27:50;5.65;;;3.20;;
80322;SDS011;69636;52.372;13.610;2023-06-14T13:32:45;3.85;;;2.50;;
80322;SDS011;69636;52.372;13.610;2023-06-14T13:35:17;5.03;;;2.70;;
80322;SDS011;69636;52.372;13.610;2023-06-14T13:37:45;5.45;;;2.90;;
80322;SDS011;69636;52.372;13.610;2023-06-14T13:42:40;5.35;;;2.70;;
80322;SDS011;69636;52.372;13.610;2023-06-14T13:47:52;5.75;;;2.72;;
80322;SDS011;69636;52.372;13.610;2023-06-14T13:50:38;5.55;;;3.33;;
80322;SDS011;69636;52.372;13.610;2023-06-14T13:53:23;6.45;;;3.08;;
80322;SDS011;69636;52.372;13.610;2023-06-14T13:56:08;5.90;;;2.72;;
80322;SDS011;69636;52.372;13.610;2023-06-14T13:58:53;6.93;;;3.10;;
80322;SDS011;69636;52.372;13.610;2023-06-14T14:01:38;6.03;;;2.90;;
80322;SDS011;69636;52.372;13.610;2023-06-14T14:04:22;6.10;;;3.03;;
80322;SDS011;69636;52.372;13.610;2023-06-14T14:07:09;5.43;;;3.10;;
80322;SDS011;69636;52.372;13.610;2023-06-14T14:09:54;6.25;;;3.03;;
80322;SDS011;69636;52.372;13.610;2023-06-14T14:12:38;6.40;;;3.22;;
80322;SDS011;69636;52.372;13.610;2023-06-14T14:15:23;5.22;;;2.88;;
80322;SDS011;69636;52.372;13.610;2023-06-14T14:18:08;5.78;;;2.65;;
80322;SDS011;69636;52.372;13.610;2023-06-14T14:20:52;5.78;;;2.67;;
80322;SDS011;69636;52.372;13.610;2023-06-14T14:23:39;5.03;;;3.10;;
80322;SDS011;69636;52.372;13.610;2023-06-14T14:26:23;5.07;;;2.95;;
80322;SDS011;69636;52.372;13.610;2023-06-14T14:29:08;5.72;;;3.53;;
80322;SDS011;69636;52.372;13.610;2023-06-14T14:31:35;8.68;;;3.05;;
80322;SDS011;69636;52.372;13.610;2023-06-14T14:34:03;5.95;;;3.08;;
80322;SDS011;69636;52.372;13.610;2023-06-14T14:36:30;5.13;;;3.25;;
80322;SDS011;69636;52.372;13.610;2023-06-14T14:41:27;5.05;;;3.08;;
80322;SDS011;69636;52.372;13.610;2023-06-14T14:43:57;5.65;;;3.03;;
80322;SDS011;69636;52.372;13.610;2023-06-14T14:46:25;4.32;;;2.72;;
80322;SDS011;69636;52.372;13.610;2023-06-14T14:48:52;6.22;;;3.65;;
80322;SDS011;69636;52.372;13.610;2023-06-14T14:51:19;6.15;;;3.33;;
80322;SDS011;69636;52.372;13.610;2023-06-14T14:53:46;7.30;;;3.65;;
80322;SDS011;69636;52.372;13.610;2023-06-14T14:56:15;6.25;;;4.05;;
80322;SDS011;69636;52.372;13.610;2023-06-14T14:58:42;7.07;;;3.30;;
80322;SDS011;69636;52.372;13.610;2023-06-14T15:01:10;7.28;;;3.40;;
80322;SDS011;69636;52.372;13.610;2023-06-14T15:06:23;5.50;;;3.03;;
80322;SDS011;69636;52.372;13.610;2023-06-14T15:08:51;4.28;;;2.70;;
80322;SDS011;69636;52.372;13.610;2023-06-14T15:11:20;5.28;;;2.95;;
80322;SDS011;69636;52.372;13.610;2023-06-14T15:13:47;6.20;;;2.80;;
80322;SDS011;69636;52.372;13.610;2023-06-14T15:16:15;5.25;;;2.83;;
80322;SDS011;69636;52.372;13.610;2023-06-14T15:21:09;5.60;;;3.00;;
80322;SDS011;69636;52.372;13.610;2023-06-14T15:23:36;5.55;;;3.38;;
80322;SDS011;69636;52.372;13.610;2023-06-14T15:26:04;5.80;;;3.17;;
80322;SDS011;69636;52.372;13.610;2023-06-14T15:30:59;5.18;;;3.30;;
80322;SDS011;69636;52.372;13.610;2023-06-14T15:35:54;5.57;;;2.72;;
80322;SDS011;69636;52.372;13.610;2023-06-14T15:38:21;5.30;;;3.38;;
80322;SDS011;69636;52.372;13.610;2023-06-14T15:40:48;7.43;;;3.30;;
80322;SDS011;69636;52.372;13.610;2023-06-14T15:43:18;7.22;;;3.90;;
80322;SDS011;69636;52.372;13.610;2023-06-14T15:45:47;19.33;;;15.55;;
80322;SDS011;69636;52.372;13.610;2023-06-14T15:48:14;7.03;;;3.15;;
80322;SDS011;69636;52.372;13.610;2023-06-14T15:50:41;6.20;;;2.85;;
80322;SDS011;69636;52.372;13.610;2023-06-14T15:53:09;4.63;;;2.72;;